Gould, Oklahoma
Current Conditions -  °F | °C
As of 3:35 AM on Sunday 23 Nov 2014 (Local Time) from KAXS Reporting Station
Haze Haze  
Wind Chill: 11°   Ceiling: 300
Heat Index: 11°   Visibility: 1mi
Dew Point: 11°   Wind: 12mph
Humidity: 94%   Direction: 150°SSE
Pressure: 29.52"   Gusts: NA
Location:  34.67°N, 99.77°W
Report Text: KAXS 230935Z AUTO 15010KT 1SM BR OVC003 12/11 A2952 RMK AO2 T01150106
Loading
Personal Weather Stations






























Interactive Weather Map New forecast layout! Learn more

10-Day Weather Forecast

Advertisements
Track Severe Weather on mobile